Time;durP1;ratioP1;P1;durP2;ratioP2;P2;SDS_P1;SDS_P2;PMS_P1;PMS_P2;Temp;Humidity;BMP_temperature;BMP_pressure;BME280_temperature;BME280_humidity;BME280_pressure;Samples;Min_cycle;Max_cycle;Signal;HPM_P1;HPM_P2
2021/06/16 00:02:04;;;;;;;4.28;1.10;;;28.70;37.70;;;;;;4328230;33;20166;-37
2021/06/16 00:04:31;;;;;;;3.50;1.00;;;28.60;38.10;;;;;;4327618;33;20075;-37
2021/06/16 00:06:57;;;;;;;5.70;1.08;;;28.50;38.50;;;;;;4364723;32;20462;-37
2021/06/16 00:09:24;;;;;;;5.15;1.10;;;28.50;38.70;;;;;;4360335;32;20066;-37
2021/06/16 00:11:51;;;;;;;5.62;1.00;;;28.50;38.80;;;;;;4359749;32;20139;-37
2021/06/16 00:14:20;;;;;;;2.53;0.95;;;28.50;38.90;;;;;;4372831;32;20077;-37
2021/06/16 00:16:47;;;;;;;4.93;1.17;;;28.40;39.00;;;;;;4372537;32;20537;-37
2021/06/16 00:19:14;;;;;;;5.15;1.00;;;28.40;39.00;;;;;;4372955;32;20074;-36
2021/06/16 00:21:41;;;;;;;6.00;1.10;;;28.30;39.00;;;;;;4360107;32;20601;-36
2021/06/16 00:24:07;;;;;;;6.97;1.30;;;28.30;39.10;;;;;;4372314;32;20173;-37
2021/06/16 00:26:34;;;;;;;6.03;1.77;;;28.30;39.20;;;;;;4365685;32;20150;-37
2021/06/16 00:29:00;;;;;;;7.00;2.58;;;28.30;39.50;;;;;;4404945;32;20076;-37
2021/06/16 00:31:27;;;;;;;3.72;1.40;;;28.30;39.60;;;;;;4390668;32;20539;-37
2021/06/16 00:33:54;;;;;;;11.32;2.35;;;28.20;39.80;;;;;;4390727;32;20065;-35
2021/06/16 00:36:20;;;;;;;7.07;1.45;;;28.20;39.70;;;;;;4404993;32;20069;-37
2021/06/16 00:38:47;;;;;;;8.93;1.35;;;28.20;39.70;;;;;;4404739;32;20069;-36
2021/06/16 00:41:13;;;;;;;9.05;1.20;;;28.10;39.40;;;;;;4390680;32;20173;-36
2021/06/16 00:43:39;;;;;;;5.22;1.17;;;28.10;39.10;;;;;;4390668;32;20078;-38
2021/06/16 00:46:06;;;;;;;2.37;0.65;;;28.10;38.40;;;;;;4390758;32;20107;-39
2021/06/16 00:48:32;;;;;;;5.10;0.90;;;28.00;38.20;;;;;;4356782;32;20066;-37
2021/06/16 00:50:58;;;;;;;3.85;1.10;;;28.00;38.10;;;;;;4357356;32;20067;-38
2021/06/16 00:53:25;;;;;;;5.22;1.45;;;28.00;38.00;;;;;;4357299;32;20094;-38
2021/06/16 00:55:51;;;;;;;7.60;1.65;;;28.00;37.60;;;;;;4356686;32;20067;-37
2021/06/16 00:58:18;;;;;;;7.15;1.27;;;28.00;37.50;;;;;;4344611;32;20059;-37
2021/06/16 01:01:05;;;;;;;5.05;1.50;;;28.00;36.90;;;;;;4344881;32;20554;-38
2021/06/16 01:03:59;;;;;;;3.30;1.58;;;28.10;37.00;;;;;;4344099;32;20151;-37
2021/06/16 01:06:41;;;;;;;5.05;1.33;;;28.20;36.70;;;;;;4344628;32;20198;-38
2021/06/16 01:09:17;;;;;;;5.25;1.37;;;28.20;36.30;;;;;;4332453;32;20149;-38
2021/06/16 01:12:04;;;;;;;6.10;2.12;;;28.30;36.30;;;;;;4344646;32;20145;-37
2021/06/16 01:14:51;;;;;;;6.55;1.35;;;28.30;36.30;;;;;;4345411;32;20129;-39
2021/06/16 01:17:33;;;;;;;2.12;0.98;;;28.40;36.20;;;;;;4314784;33;20546;-38
2021/06/16 01:20:00;;;;;;;3.22;1.15;;;28.30;36.10;;;;;;4315984;33;20054;-38
2021/06/16 01:22:49;;;;;;;11.80;2.35;;;28.30;36.30;;;;;;4326936;33;20157;-38
2021/06/16 01:25:34;;;;;;;9.93;1.67;;;28.30;36.40;;;;;;4320293;32;20145;-38
2021/06/16 01:28:00;;;;;;;7.97;1.20;;;28.30;36.40;;;;;;4370743;32;20159;-38
2021/06/16 01:30:29;;;;;;;2.90;0.50;;;28.40;36.20;;;;;;4359332;32;20064;-38
2021/06/16 01:32:56;;;;;;;5.80;1.12;;;28.40;36.00;;;;;;4334531;32;20509;-38
2021/06/16 01:35:24;;;;;;;5.90;1.20;;;28.50;35.80;;;;;;4359004;32;20069;-38
2021/06/16 01:37:50;;;;;;;10.77;1.90;;;28.50;35.70;;;;;;4358868;32;20069;-37
2021/06/16 01:40:17;;;;;;;2.60;0.70;;;28.70;35.80;;;;;;4346540;32;20076;-38
2021/06/16 01:42:44;;;;;;;5.35;0.80;;;28.80;35.60;;;;;;4358876;32;20094;-35
2021/06/16 01:45:11;;;;;;;2.58;1.20;;;28.90;35.20;;;;;;4359090;32;20162;-38
2021/06/16 01:47:37;;;;;;;3.75;1.35;;;29.10;35.30;;;;;;4363324;32;20065;-38
2021/06/16 01:50:04;;;;;;;8.07;1.52;;;29.30;35.20;;;;;;4387001;32;20070;-38
2021/06/16 01:52:31;;;;;;;7.93;1.02;;;29.50;35.10;;;;;;4388420;32;20056;-38
2021/06/16 01:54:58;;;;;;;5.65;1.10;;;29.70;34.90;;;;;;4374146;32;20061;-38
2021/06/16 01:57:25;;;;;;;5.25;1.45;;;29.90;34.50;;;;;;4386791;32;20076;-38
2021/06/16 01:59:53;;;;;;;12.18;3.40;;;30.10;34.40;;;;;;4388819;32;20090;-38
2021/06/16 02:02:19;;;;;;;7.72;1.23;;;30.20;34.10;;;;;;4343114;32;20158;-38
2021/06/16 02:04:45;;;;;;;2.22;0.90;;;30.40;33.90;;;;;;4343746;32;20166;-37
2021/06/16 02:07:17;;;;;;;7.10;2.40;;;30.50;33.60;;;;;;4356230;32;20055;-38
2021/06/16 02:09:45;;;;;;;8.75;1.35;;;30.60;33.50;;;;;;4344212;32;20094;-38
2021/06/16 02:12:14;;;;;;;4.75;0.50;;;30.70;33.20;;;;;;4356224;32;20078;-37
2021/06/16 02:14:57;;;;;;;3.92;0.70;;;30.90;32.80;;;;;;4356212;32;20133;-38
2021/06/16 02:17:25;;;;;;;6.70;1.33;;;31.00;32.90;;;;;;4343992;32;20090;-37
2021/06/16 02:19:52;;;;;;;6.60;0.60;;;31.20;32.70;;;;;;4331483;32;20719;-39
2021/06/16 02:22:18;;;;;;;6.30;0.70;;;31.40;32.00;;;;;;4343420;32;20163;-37
2021/06/16 02:24:45;;;;;;;5.87;0.73;;;31.70;31.70;;;;;;4331323;32;20073;-37
2021/06/16 02:27:12;;;;;;;6.57;0.70;;;31.90;30.90;;;;;;4355408;32;20178;-37
2021/06/16 02:29:39;;;;;;;14.30;1.30;;;32.10;30.80;;;;;;4355392;32;20086;-37
2021/06/16 02:32:06;;;;;;;5.62;0.85;;;32.30;30.30;;;;;;4343026;32;20557;-37
2021/06/16 02:34:32;;;;;;;3.85;0.98;;;32.50;29.90;;;;;;4388148;32;20146;-38
2021/06/16 02:37:05;;;;;;;11.02;0.77;;;32.80;30.10;;;;;;4386591;32;20575;-38
2021/06/16 02:39:40;;;;;;;5.30;0.80;;;33.00;29.70;;;;;;4386683;32;20085;-38
2021/06/16 02:42:08;;;;;;;3.62;0.65;;;33.20;29.70;;;;;;4388222;32;20065;-37
2021/06/16 02:44:35;;;;;;;7.15;0.60;;;33.30;29.30;;;;;;4387726;32;20069;-37
2021/06/16 02:47:02;;;;;;;6.28;0.80;;;33.40;29.40;;;;;;4388154;32;20523;-37
2021/06/16 02:49:41;;;;;;;3.25;0.88;;;33.50;29.50;;;;;;4389133;32;20080;-37
2021/06/16 02:52:10;;;;;;;4.40;0.80;;;33.50;29.40;;;;;;4402968;32;20677;-38
2021/06/16 02:54:37;;;;;;;21.37;2.75;;;33.50;29.60;;;;;;4403250;32;20062;-38
2021/06/16 02:57:05;;;;;;;11.77;1.50;;;33.40;29.80;;;;;;4403118;32;20069;-38
2021/06/16 02:59:32;;;;;;;2.80;0.80;;;33.40;29.90;;;;;;4376712;32;20070;-38
2021/06/16 03:01:59;;;;;;;6.03;0.93;;;33.40;29.90;;;;;;4388935;32;20062;-38
2021/06/16 03:04:25;;;;;;;7.53;0.85;;;33.40;30.10;;;;;;4402690;32;20149;-38
2021/06/16 03:06:53;;;;;;;6.05;1.20;;;33.50;30.10;;;;;;4391004;32;20069;-38
2021/06/16 03:09:20;;;;;;;14.40;0.82;;;33.70;30.70;;;;;;4392238;32;20524;-36
2021/06/16 03:11:47;;;;;;;9.48;1.20;;;34.00;29.90;;;;;;4392196;32;20053;-37
2021/06/16 03:14:13;;;;;;;9.65;0.90;;;34.30;29.60;;;;;;4391411;32;20194;-37
2021/06/16 03:16:42;;;;;;;9.48;1.15;;;34.60;29.60;;;;;;4360161;32;20092;-38
2021/06/16 03:19:08;;;;;;;10.40;1.10;;;35.00;29.40;;;;;;4373428;32;20104;-38
2021/06/16 03:21:35;;;;;;;10.85;0.68;;;35.30;29.30;;;;;;4292226;33;20059;-37
2021/06/16 03:24:01;;;;;;;13.65;1.45;;;35.60;29.10;;;;;;4315918;33;20071;-37
2021/06/16 03:26:28;;;;;;;8.55;0.93;;;36.10;29.00;;;;;;4304334;33;20081;-37
2021/06/16 03:28:55;;;;;;;7.68;1.70;;;36.40;29.10;;;;;;4316359;33;20165;-37
2021/06/16 03:31:21;;;;;;;7.82;1.10;;;36.70;28.80;;;;;;4316162;33;20207;-37
2021/06/16 03:33:48;;;;;;;15.40;1.92;;;37.00;28.50;;;;;;4304379;33;20091;-37
2021/06/16 03:36:16;;;;;;;4.62;0.98;;;37.30;28.40;;;;;;4303880;33;20494;-37
2021/06/16 03:38:45;;;;;;;11.07;0.80;;;37.60;28.30;;;;;;4304787;33;20180;-38
2021/06/16 03:41:11;;;;;;;15.20;0.80;;;37.90;28.30;;;;;;4303781;33;20206;-38
2021/06/16 03:43:38;;;;;;;4.00;1.00;;;38.20;28.40;;;;;;4316068;33;20079;-37
2021/06/16 03:46:08;;;;;;;15.80;2.55;;;38.40;28.10;;;;;;4303984;33;20467;-37
2021/06/16 03:48:35;;;;;;;10.57;2.83;;;38.70;28.10;;;;;;4324231;33;20067;-37
2021/06/16 03:51:02;;;;;;;11.80;1.45;;;38.80;28.00;;;;;;4318364;33;20139;-38
2021/06/16 03:53:28;;;;;;;10.93;1.10;;;39.00;28.10;;;;;;4350977;32;20065;-38
2021/06/16 03:55:55;;;;;;;11.12;0.98;;;39.10;28.10;;;;;;4363942;32;20149;-38
2021/06/16 03:58:21;;;;;;;9.27;1.10;;;39.20;28.10;;;;;;4363879;32;20065;-38
2021/06/16 04:00:48;;;;;;;9.38;2.35;;;39.30;28.10;;;;;;4363610;32;20058;-38
2021/06/16 04:03:15;;;;;;;6.53;1.02;;;39.50;28.00;;;;;;4363693;32;20092;-38
2021/06/16 04:05:42;;;;;;;11.52;1.58;;;39.50;28.00;;;;;;4363476;32;20097;-37
2021/06/16 04:08:10;;;;;;;13.50;1.08;;;39.70;28.10;;;;;;4363597;32;20066;-38
2021/06/16 04:10:36;;;;;;;11.73;1.17;;;39.70;28.00;;;;;;4375429;32;20092;-38
2021/06/16 04:13:04;;;;;;;9.25;0.93;;;39.80;28.00;;;;;;4363318;32;20093;-38
2021/06/16 04:15:30;;;;;;;13.32;1.70;;;39.90;28.20;;;;;;4356995;32;20066;-38
2021/06/16 04:18:00;;;;;;;13.43;0.90;;;39.90;28.20;;;;;;4344471;32;20070;-38
2021/06/16 04:20:27;;;;;;;22.10;1.60;;;40.00;28.30;;;;;;4357536;32;20065;-38
2021/06/16 04:22:54;;;;;;;9.15;1.17;;;40.10;28.50;;;;;;4357052;32;20078;-38
2021/06/16 04:25:23;;;;;;;15.65;1.65;;;40.10;28.20;;;;;;4357804;32;20078;-39
2021/06/16 04:27:51;;;;;;;11.10;1.00;;;40.10;28.20;;;;;;4357679;32;20075;-38
2021/06/16 04:30:19;;;;;;;3.83;0.70;;;40.20;28.20;;;;;;4345361;32;20108;-38
2021/06/16 04:32:45;;;;;;;6.05;1.80;;;40.10;28.20;;;;;;4356950;32;20089;-37
2021/06/16 04:35:12;;;;;;;18.02;1.40;;;40.10;28.30;;;;;;4327117;33;20102;-38
2021/06/16 04:37:38;;;;;;;10.68;1.58;;;40.00;28.40;;;;;;4327165;33;20098;-37
2021/06/16 04:40:06;;;;;;;6.72;0.77;;;40.00;28.50;;;;;;4326924;33;20556;-39
2021/06/16 04:42:33;;;;;;;10.73;1.20;;;40.00;28.60;;;;;;4327598;33;20086;-37
2021/06/16 04:44:59;;;;;;;15.27;1.92;;;39.90;28.70;;;;;;4315000;33;20087;-39
2021/06/16 04:47:26;;;;;;;8.23;1.30;;;39.90;28.70;;;;;;4328555;33;20079;-39
2021/06/16 04:49:52;;;;;;;11.75;1.75;;;39.90;28.80;;;;;;4329918;33;20517;-38
2021/06/16 04:52:18;;;;;;;11.40;0.95;;;39.90;28.90;;;;;;4348857;32;20089;-39
2021/06/16 04:54:45;;;;;;;16.87;0.93;;;39.80;28.90;;;;;;4358972;32;20529;-39
2021/06/16 04:57:11;;;;;;;8.27;0.90;;;39.80;29.00;;;;;;4371480;32;20528;-38
2021/06/16 04:59:38;;;;;;;16.87;1.33;;;39.80;29.00;;;;;;4359189;32;20084;-38
2021/06/16 05:02:05;;;;;;;14.32;1.65;;;39.70;29.20;;;;;;4371855;32;20090;-38
2021/06/16 05:04:31;;;;;;;13.68;1.10;;;39.70;29.30;;;;;;4359156;32;20090;-38
2021/06/16 05:06:57;;;;;;;8.43;1.50;;;39.70;29.40;;;;;;4397485;32;20073;-38
2021/06/16 05:09:24;;;;;;;10.15;1.00;;;39.70;29.30;;;;;;4404327;32;20603;-39
2021/06/16 05:11:51;;;;;;;10.05;1.35;;;39.70;29.30;;;;;;4389940;32;20081;-38
2021/06/16 05:14:17;;;;;;;12.25;2.08;;;39.70;29.30;;;;;;4390462;32;20168;-38
2021/06/16 05:16:44;;;;;;;11.07;2.45;;;39.70;29.40;;;;;;4403964;32;20197;-38
2021/06/16 05:19:19;;;;;;;4.45;0.88;;;39.70;29.40;;;;;;4403757;32;20172;-38
2021/06/16 05:21:46;;;;;;;5.78;0.88;;;39.70;29.30;;;;;;4403951;32;20234;-39
2021/06/16 05:24:13;;;;;;;5.82;1.08;;;39.70;29.30;;;;;;4403645;32;20089;-37
2021/06/16 05:26:40;;;;;;;11.27;1.25;;;39.70;29.40;;;;;;4403338;32;20057;-40
2021/06/16 05:29:07;;;;;;;7.20;1.20;;;39.70;29.50;;;;;;4388700;32;20112;-39
2021/06/16 05:31:34;;;;;;;7.82;0.70;;;39.70;29.60;;;;;;4402373;32;20160;-38
2021/06/16 05:34:00;;;;;;;8.43;1.27;;;39.60;29.70;;;;;;4377096;32;20499;-39
2021/06/16 05:36:27;;;;;;;7.62;0.80;;;39.70;29.60;;;;;;4389778;32;20226;-39
2021/06/16 05:38:53;;;;;;;8.13;1.45;;;39.60;29.60;;;;;;4401042;32;20080;-40
2021/06/16 05:41:20;;;;;;;18.08;1.62;;;39.60;29.90;;;;;;4388424;32;20058;-39
2021/06/16 05:43:46;;;;;;;4.20;0.73;;;39.50;30.00;;;;;;4401237;32;20618;-40
2021/06/16 05:46:13;;;;;;;19.70;1.92;;;39.50;30.30;;;;;;4400957;32;20449;-39
2021/06/16 05:48:39;;;;;;;13.35;1.17;;;39.40;30.20;;;;;;4391574;32;20065;-39
2021/06/16 05:51:06;;;;;;;12.65;1.12;;;39.30;30.60;;;;;;4373583;32;20065;-39
2021/06/16 05:53:32;;;;;;;12.40;1.40;;;39.30;30.80;;;;;;4373384;32;20141;-38
2021/06/16 05:55:59;;;;;;;12.68;2.17;;;39.20;30.90;;;;;;4385955;32;20591;-38
2021/06/16 05:58:25;;;;;;;8.65;1.12;;;39.10;31.30;;;;;;4385655;32;20057;-38
2021/06/16 06:00:52;;;;;;;4.37;0.62;;;39.10;31.90;;;;;;4373170;32;20109;-39
2021/06/16 06:03:18;;;;;;;10.02;1.15;;;39.00;32.10;;;;;;4385661;32;20769;-40
2021/06/16 06:05:45;;;;;;;9.40;1.50;;;39.00;32.30;;;;;;4385658;32;20158;-38
2021/06/16 06:08:11;;;;;;;8.38;0.90;;;39.00;32.50;;;;;;4385877;32;20057;-39
2021/06/16 06:10:37;;;;;;;12.18;1.02;;;38.90;32.50;;;;;;4387384;32;20058;-39
2021/06/16 06:13:04;;;;;;;11.80;1.42;;;38.80;33.10;;;;;;4388124;32;20113;-39
2021/06/16 06:15:30;;;;;;;9.63;1.30;;;38.70;32.80;;;;;;4388663;32;20146;-38
2021/06/16 06:17:57;;;;;;;9.63;1.42;;;38.70;33.00;;;;;;4388133;32;20521;-39
2021/06/16 06:20:24;;;;;;;7.57;0.93;;;38.70;33.10;;;;;;4374077;32;20077;-38
2021/06/16 06:22:50;;;;;;;11.10;1.48;;;38.70;33.00;;;;;;4387668;32;20124;-38
2021/06/16 06:25:17;;;;;;;9.55;0.90;;;38.80;33.20;;;;;;4387897;32;20070;-39
2021/06/16 06:27:43;;;;;;;7.12;1.33;;;38.90;33.00;;;;;;4387677;32;20611;-39
2021/06/16 06:30:10;;;;;;;9.88;1.30;;;38.90;32.80;;;;;;4388232;32;20169;-38
2021/06/16 06:32:37;;;;;;;6.47;0.80;;;39.00;33.10;;;;;;4374187;32;20171;-38
2021/06/16 06:35:04;;;;;;;8.65;1.00;;;39.00;32.80;;;;;;4387452;32;20510;-39
2021/06/16 06:37:30;;;;;;;13.07;1.33;;;39.00;32.90;;;;;;4373902;32;20078;-39
2021/06/16 06:39:57;;;;;;;6.85;1.55;;;39.00;33.10;;;;;;4387568;32;20073;-37
2021/06/16 06:42:23;;;;;;;8.25;1.92;;;39.00;33.10;;;;;;4354760;32;20161;-38
2021/06/16 06:44:50;;;;;;;9.57;0.93;;;39.00;33.20;;;;;;4354931;32;20568;-38
2021/06/16 06:47:16;;;;;;;11.75;1.20;;;39.00;33.40;;;;;;4343055;32;20074;-38
2021/06/16 06:49:43;;;;;;;7.82;1.30;;;39.10;33.40;;;;;;4370254;32;20632;-38
2021/06/16 06:52:09;;;;;;;6.68;1.05;;;39.10;33.30;;;;;;4369946;32;20180;-38
2021/06/16 06:54:36;;;;;;;13.32;1.25;;;39.10;33.20;;;;;;4370225;32;20058;-38
2021/06/16 06:57:04;;;;;;;9.35;1.15;;;39.10;33.30;;;;;;4357686;32;20061;-38
2021/06/16 06:59:30;;;;;;;7.87;1.35;;;39.10;33.50;;;;;;4370457;32;20079;-38
2021/06/16 07:01:58;;;;;;;12.23;1.55;;;39.20;33.40;;;;;;4357427;32;20146;-38
2021/06/16 07:04:26;;;;;;;15.80;1.67;;;39.30;33.50;;;;;;4370068;32;20082;-37
2021/06/16 07:06:53;;;;;;;14.70;1.92;;;39.40;33.50;;;;;;4370011;32;20105;-38
2021/06/16 07:09:20;;;;;;;12.57;1.50;;;39.40;33.80;;;;;;4370448;32;20082;-38
2021/06/16 07:11:46;;;;;;;11.23;1.62;;;39.40;33.50;;;;;;4370008;32;20078;-38
2021/06/16 07:14:12;;;;;;;9.65;1.08;;;39.40;33.70;;;;;;4384755;32;20615;-38
2021/06/16 07:16:39;;;;;;;8.95;1.30;;;39.30;33.80;;;;;;4385957;32;20093;-38
2021/06/16 07:19:05;;;;;;;10.93;1.83;;;39.20;34.10;;;;;;4387691;32;20540;-39
2021/06/16 07:21:32;;;;;;;4.20;1.02;;;38.90;34.40;;;;;;4387739;32;20060;-38
2021/06/16 07:23:58;;;;;;;3.33;0.93;;;38.70;34.60;;;;;;4387593;32;20063;-39
2021/06/16 07:26:25;;;;;;;12.63;1.98;;;38.60;34.70;;;;;;4387441;32;20076;-37
2021/06/16 07:28:51;;;;;;;12.13;1.00;;;38.50;34.90;;;;;;4387746;32;20065;-40
2021/06/16 07:31:18;;;;;;;5.32;1.00;;;38.40;34.90;;;;;;4387535;32;20161;-38
2021/06/16 07:33:44;;;;;;;9.15;1.37;;;38.50;35.00;;;;;;4387532;32;20446;-39
2021/06/16 07:36:10;;;;;;;8.93;1.20;;;38.40;35.30;;;;;;4386748;32;20487;-39
2021/06/16 07:38:37;;;;;;;10.25;1.90;;;38.30;36.00;;;;;;4387132;32;20079;-38
2021/06/16 07:41:03;;;;;;;8.50;2.60;;;38.10;35.30;;;;;;4387448;32;20426;-38
2021/06/16 07:43:30;;;;;;;8.88;1.65;;;37.90;36.00;;;;;;4388201;32;20070;-38
2021/06/16 07:45:56;;;;;;;13.25;2.22;;;37.90;36.10;;;;;;4387271;32;20097;-39
2021/06/16 07:48:23;;;;;;;5.47;1.37;;;38.00;36.10;;;;;;4379647;32;20081;-39
2021/06/16 07:50:49;;;;;;;11.02;2.47;;;37.90;36.10;;;;;;4372721;32;20082;-38
2021/06/16 07:53:16;;;;;;;7.05;1.48;;;37.60;36.60;;;;;;4375203;32;20614;-39
2021/06/16 07:55:42;;;;;;;9.95;1.87;;;37.40;36.50;;;;;;4375133;32;20049;-38
2021/06/16 07:58:10;;;;;;;6.32;1.20;;;37.40;36.80;;;;;;4373626;32;20577;-38
2021/06/16 08:00:37;;;;;;;8.98;1.48;;;37.30;36.50;;;;;;4373171;32;20077;-38
2021/06/16 08:03:04;;;;;;;9.40;1.10;;;37.30;36.90;;;;;;4375171;32;20179;-37
2021/06/16 08:05:30;;;;;;;9.82;1.48;;;37.30;36.60;;;;;;4373161;32;20461;-44
2021/06/16 08:07:57;;;;;;;9.02;1.50;;;37.20;36.70;;;;;;4373416;32;20062;-40
2021/06/16 08:10:23;;;;;;;10.85;1.50;;;37.30;36.60;;;;;;4373324;32;20092;-38
2021/06/16 08:12:50;;;;;;;7.93;1.33;;;37.20;36.70;;;;;;4374682;32;20113;-38
2021/06/16 08:15:16;;;;;;;11.57;1.87;;;37.20;36.60;;;;;;4372901;32;20134;-41
2021/06/16 08:17:43;;;;;;;11.45;2.55;;;37.20;36.60;;;;;;4374339;32;20078;-38
2021/06/16 08:20:10;;;;;;;9.73;1.65;;;37.20;36.50;;;;;;4374454;32;20183;-37
2021/06/16 08:22:37;;;;;;;10.82;2.37;;;37.20;36.40;;;;;;4374935;32;20141;-37
2021/06/16 08:25:10;;;;;;;9.65;1.08;;;37.20;36.60;;;;;;4374813;32;20057;-38
2021/06/16 08:27:38;;;;;;;7.82;2.22;;;37.20;36.50;;;;;;4371755;32;20103;-37
2021/06/16 08:30:06;;;;;;;6.62;0.93;;;37.00;36.20;;;;;;4359963;32;21023;-39
2021/06/16 08:32:33;;;;;;;3.95;1.02;;;36.80;36.60;;;;;;4372300;32;20161;-38
2021/06/16 08:35:00;;;;;;;6.22;1.35;;;36.70;36.90;;;;;;4359698;32;20108;-38
2021/06/16 08:37:26;;;;;;;7.15;1.10;;;36.50;37.20;;;;;;4372244;32;20166;-38
2021/06/16 08:39:53;;;;;;;6.97;1.40;;;36.30;37.00;;;;;;4372106;32;20076;-38
2021/06/16 08:42:19;;;;;;;9.93;1.37;;;36.30;37.10;;;;;;4371284;32;20213;-38
2021/06/16 08:44:51;;;;;;;5.78;1.08;;;36.20;37.30;;;;;;4371893;32;20147;-38
2021/06/16 08:47:19;;;;;;;12.60;2.15;;;36.10;37.40;;;;;;4371703;32;20081;-39
2021/06/16 08:49:45;;;;;;;8.15;1.70;;;36.00;37.70;;;;;;4347468;32;20089;-38
2021/06/16 08:52:12;;;;;;;6.40;1.25;;;36.00;37.60;;;;;;4359341;32;20073;-37
2021/06/16 08:54:38;;;;;;;14.98;1.65;;;36.00;37.60;;;;;;4372024;32;20066;-37
2021/06/16 08:57:05;;;;;;;8.20;1.30;;;36.00;37.70;;;;;;4371641;32;20197;-37
2021/06/16 08:59:32;;;;;;;10.73;1.25;;;36.10;37.70;;;;;;4371748;32;20158;-37
2021/06/16 09:01:58;;;;;;;10.38;1.27;;;36.00;37.50;;;;;;4371370;32;20139;-38
2021/06/16 09:04:48;;;;;;;6.65;1.65;;;35.90;37.50;;;;;;4371930;32;20058;-38
2021/06/16 09:07:17;;;;;;;5.10;1.35;;;35.80;38.10;;;;;;4373888;32;20076;-38
2021/06/16 09:09:45;;;;;;;7.90;1.48;;;35.80;38.40;;;;;;4374333;32;20077;-38
2021/06/16 09:12:17;;;;;;;6.68;1.42;;;35.80;37.80;;;;;;4360293;32;20097;-37
2021/06/16 09:14:55;;;;;;;13.52;1.65;;;35.90;38.00;;;;;;4373805;32;20069;-37
2021/06/16 09:17:22;;;;;;;5.80;1.42;;;35.90;37.80;;;;;;4373742;32;20152;-37
2021/06/16 09:19:57;;;;;;;6.47;1.10;;;35.90;38.00;;;;;;4373477;32;20096;-38
2021/06/16 09:22:36;;;;;;;10.90;1.52;;;35.90;38.20;;;;;;4373884;32;20423;-38
2021/06/16 09:25:07;;;;;;;9.65;1.77;;;35.90;38.10;;;;;;4373483;32;20543;-38
2021/06/16 09:27:46;;;;;;;6.25;0.93;;;35.80;38.10;;;;;;4372114;32;20142;-38
2021/06/16 09:30:19;;;;;;;8.00;1.08;;;35.80;37.90;;;;;;4373946;32;20575;-38
2021/06/16 09:32:58;;;;;;;8.25;1.33;;;35.70;37.40;;;;;;4373575;32;20489;-38
2021/06/16 09:35:30;;;;;;;4.50;1.10;;;35.70;37.40;;;;;;4373626;32;20145;-38
2021/06/16 09:37:59;;;;;;;8.80;0.93;;;35.70;37.80;;;;;;4372111;32;20123;-38
2021/06/16 09:40:28;;;;;;;8.77;1.27;;;35.60;37.50;;;;;;4373096;32;20106;-38
2021/06/16 09:43:05;;;;;;;6.03;1.00;;;35.60;37.70;;;;;;4371605;32;20086;-40
2021/06/16 09:45:32;;;;;;;10.25;0.90;;;35.60;37.60;;;;;;4373828;32;20086;-38
2021/06/16 09:47:59;;;;;;;7.32;1.25;;;35.60;37.70;;;;;;4378496;32;20472;-38
2021/06/16 09:50:26;;;;;;;7.10;1.37;;;35.60;37.70;;;;;;4386915;32;20177;-38
2021/06/16 09:52:53;;;;;;;5.87;1.05;;;35.60;38.10;;;;;;4388055;32;20078;-38
2021/06/16 09:55:27;;;;;;;15.48;1.95;;;35.60;37.60;;;;;;4388634;32;20089;-38
2021/06/16 09:57:57;;;;;;;;;;;35.70;38.00;;;;;;4389036;32;20061;-38
2021/06/16 10:00:35;;;;;;;11.18;1.48;;;35.60;37.90;;;;;;4388269;32;19988;-38
2021/06/16 10:03:19;;;;;;;7.80;1.83;;;35.60;38.70;;;;;;4374572;32;20141;-37
2021/06/16 10:06:16;;;;;;;9.87;1.30;;;35.70;39.20;;;;;;4387705;32;20081;-39
2021/06/16 10:08:45;;;;;;;6.22;1.17;;;35.70;39.40;;;;;;4357674;32;20077;-38
2021/06/16 10:11:16;;;;;;;8.75;1.45;;;35.90;39.50;;;;;;4370402;32;20078;-38
2021/06/16 10:13:43;;;;;;;7.85;1.30;;;36.10;39.20;;;;;;4370974;32;20070;-38
2021/06/16 10:16:10;;;;;;;7.22;1.65;;;36.30;38.00;;;;;;4370437;32;20106;-38
2021/06/16 10:18:41;;;;;;;4.90;1.15;;;36.40;37.90;;;;;;4370599;32;20190;-39
2021/06/16 10:21:08;;;;;;;10.00;1.83;;;36.40;37.80;;;;;;4370343;32;20089;-37
2021/06/16 10:23:35;;;;;;;3.85;1.42;;;36.30;37.50;;;;;;4370292;32;20205;-36
2021/06/16 10:26:16;;;;;;;8.57;1.40;;;36.30;37.30;;;;;;4370656;32;20069;-38
2021/06/16 10:28:50;;;;;;;7.00;1.80;;;36.20;37.00;;;;;;4370450;32;20541;-37
2021/06/16 10:31:16;;;;;;;9.60;1.83;;;36.10;37.30;;;;;;4357802;32;20074;-37
2021/06/16 10:33:43;;;;;;;11.40;1.52;;;36.00;36.70;;;;;;4370057;32;20522;-37
2021/06/16 10:36:21;;;;;;;8.68;1.45;;;35.90;36.10;;;;;;4370202;32;20070;-38
2021/06/16 10:38:57;;;;;;;8.10;1.10;;;35.70;35.80;;;;;;4372694;32;20072;-37
2021/06/16 10:41:41;;;;;;;6.18;1.10;;;35.60;36.20;;;;;;4388217;32;20081;-39
2021/06/16 10:44:22;;;;;;;7.47;0.90;;;35.60;36.60;;;;;;4387546;32;20082;-37
2021/06/16 10:46:55;;;;;;;7.30;1.00;;;35.50;36.60;;;;;;4388151;32;20078;-37
2021/06/16 10:49:36;;;;;;;4.93;1.40;;;35.50;35.50;;;;;;4374503;32;20051;-38
2021/06/16 10:52:04;;;;;;;14.95;3.33;;;35.50;35.50;;;;;;4372374;32;20090;-38
2021/06/16 10:54:31;;;;;;;7.15;1.60;;;35.40;36.10;;;;;;4373102;32;20098;-38
2021/06/16 10:57:05;;;;;;;7.75;1.10;;;35.40;36.60;;;;;;4372613;32;20062;-38
2021/06/16 10:59:43;;;;;;;9.32;1.15;;;35.30;37.00;;;;;;4372586;32;20062;-39
2021/06/16 11:02:17;;;;;;;8.43;1.42;;;35.20;37.50;;;;;;4372521;32;20153;-38
2021/06/16 11:04:44;;;;;;;8.43;1.15;;;35.30;37.80;;;;;;4372516;32;20066;-38
2021/06/16 11:07:32;;;;;;;4.35;1.00;;;35.30;37.10;;;;;;4387051;32;20106;-39
2021/06/16 11:10:04;;;;;;;10.40;1.55;;;35.20;37.10;;;;;;4387431;32;20089;-38
2021/06/16 11:12:43;;;;;;;6.62;1.20;;;35.10;37.20;;;;;;4387195;32;20058;-38
2021/06/16 11:15:25;;;;;;;6.78;1.25;;;34.90;37.20;;;;;;4387391;32;20053;-38
2021/06/16 11:17:55;;;;;;;10.05;1.40;;;34.60;37.30;;;;;;4387592;32;20145;-38
2021/06/16 11:20:25;;;;;;;9.00;1.42;;;34.50;37.70;;;;;;4387384;32;20150;-39
2021/06/16 11:23:01;;;;;;;7.18;1.20;;;34.40;37.90;;;;;;4387458;32;20066;-37
2021/06/16 11:25:40;;;;;;;7.05;1.00;;;34.30;38.30;;;;;;4373230;32;20066;-39
2021/06/16 11:28:37;;;;;;;11.18;2.80;;;34.40;38.40;;;;;;4389676;32;20082;-37
2021/06/16 11:31:06;;;;;;;8.77;1.00;;;34.40;38.50;;;;;;4390161;32;20061;-38
2021/06/16 11:33:35;;;;;;;7.82;1.20;;;34.50;38.60;;;;;;4390552;32;20061;-38
2021/06/16 11:36:19;;;;;;;9.77;1.48;;;34.60;38.40;;;;;;4390052;32;20510;-38
2021/06/16 11:39:03;;;;;;;5.25;1.50;;;34.70;38.50;;;;;;4391042;32;20569;-38
2021/06/16 11:41:30;;;;;;;5.20;1.05;;;34.80;38.20;;;;;;4390545;32;20097;-38
2021/06/16 11:44:10;;;;;;;5.82;1.10;;;34.80;37.30;;;;;;4390025;32;20073;-38
2021/06/16 11:46:44;;;;;;;3.40;1.08;;;34.80;37.50;;;;;;4375806;32;20150;-39
2021/06/16 11:49:25;;;;;;;14.70;1.33;;;34.70;37.60;;;;;;4402589;32;20066;-38
2021/06/16 11:51:57;;;;;;;8.35;0.90;;;34.70;37.90;;;;;;4391126;32;20068;-39
2021/06/16 11:54:25;;;;;;;7.22;1.37;;;34.70;37.80;;;;;;4405090;32;20069;-39
2021/06/16 11:57:07;;;;;;;5.62;1.40;;;34.80;37.80;;;;;;4405480;32;20065;-37
2021/06/16 11:59:39;;;;;;;9.10;0.90;;;34.80;38.10;;;;;;4405033;32;20097;-38
2021/06/16 12:02:21;;;;;;;11.75;1.40;;;34.90;37.20;;;;;;4391528;32;20141;-38
2021/06/16 12:05:02;;;;;;;13.93;2.45;;;35.00;37.30;;;;;;4372568;32;20069;-38
2021/06/16 12:07:30;;;;;;;6.57;1.00;;;35.00;37.10;;;;;;4372439;32;20062;-38
2021/06/16 12:10:02;;;;;;;8.25;1.50;;;35.00;37.20;;;;;;4372111;32;20082;-38
2021/06/16 12:13:03;;;;;;;17.15;2.10;;;35.00;37.00;;;;;;4372307;32;20096;-38
2021/06/16 12:15:37;;;;;;;10.80;1.15;;;35.10;37.30;;;;;;4372354;32;20071;-38
2021/06/16 12:18:14;;;;;;;;;;;35.10;37.00;;;;;;4372634;32;20074;-38
2021/06/16 12:20:52;;;;;;;9.77;1.80;;;35.00;37.00;;;;;;4372136;32;20001;-38
2021/06/16 12:23:34;;;;;;;7.50;1.50;;;35.00;37.50;;;;;;4371971;32;20572;-38
2021/06/16 12:26:11;;;;;;;6.37;1.02;;;35.00;36.70;;;;;;4372095;32;20084;-38
2021/06/16 12:28:40;;;;;;;8.02;1.45;;;35.00;36.10;;;;;;4372092;32;20070;-38
2021/06/16 12:31:10;;;;;;;9.77;1.35;;;34.90;36.10;;;;;;4371729;32;20167;-38
2021/06/16 12:34:31;;;;;;;6.05;0.90;;;34.90;35.70;;;;;;4360121;32;20281;-38
2021/06/16 12:36:32;;;;;;;7.72;1.40;;;34.90;36.50;;;;;;4363817;32;20509;-38
2021/06/16 12:39:16;;;;;;;8.07;1.20;;;34.90;36.50;;;;;;4371674;32;20108;-37
2021/06/16 12:41:50;;;;;;;5.45;1.15;;;35.00;36.90;;;;;;4380697;32;20517;-38
2021/06/16 12:44:44;;;;;;;;;;;35.10;36.60;;;;;;4404765;32;20092;-38
2021/06/16 12:47:19;;;;;;;9.15;1.92;;;35.10;36.40;;;;;;4404107;32;20440;-38
2021/06/16 12:49:50;;;;;;;4.22;1.20;;;35.10;36.10;;;;;;4389345;32;20079;-39
2021/06/16 12:52:38;;;;;;;9.43;1.60;;;35.10;36.00;;;;;;4375241;32;20108;-38
2021/06/16 12:55:12;;;;;;;10.18;1.87;;;35.00;35.60;;;;;;4389024;32;20062;-40
2021/06/16 12:57:52;;;;;;;7.47;1.30;;;35.10;35.60;;;;;;4375473;32;20064;-39
2021/06/16 13:00:22;;;;;;;6.50;0.82;;;35.10;35.80;;;;;;4389109;32;20528;-37